Micanopy, Florida
Current Conditions -  °F | °C
As of 5:53 AM on Monday 22 Dec 2014 (Local Time) from KGNV Reporting Station
Light Rain Light Rain  
Wind Chill: 63°   Ceiling: 400
Heat Index: 63°   Visibility: 10mi
Dew Point: 63°   Wind: 7mph
Humidity: 100%   Direction: 120°ESE
Pressure: 29.99"   Gusts: NA
Location:  29.5°N, 82.28°W
Report Text: KGNV 221053Z AUTO 12006KT 10SM -RA BKN004 OVC008 17/17 A2999 RMK AO2 SLP153 P0002 T01720172
Loading
Personal Weather Stations






























Interactive Weather Map New forecast layout! Learn more

10-Day Weather Forecast

Advertisements
Track Severe Weather on mobile